Time;durP1;ratioP1;P1;durP2;ratioP2;P2;SDS_P1;SDS_P2;PMS_P1;PMS_P2;Temp;Humidity;BMP_temperature;BMP_pressure;BME280_temperature;BME280_humidity;BME280_pressure;Samples;Min_cycle;Max_cycle;Signal;HPM_P1;HPM_P2
2023/09/23 00:01:21;;;;;;;0.10;0.10;;;12.50;99.90;;;;;;4958015;28;20043;-82
2023/09/23 00:03:48;;;;;;;1.92;1.25;;;12.40;99.90;;;;;;4964062;28;20058;-82
2023/09/23 00:06:15;;;;;;;0.10;0.10;;;12.40;1.00;;;;;;4975202;28;20053;-82
2023/09/23 00:08:41;;;;;;;0.10;0.10;;;12.40;1.00;;;;;;4963049;28;20504;-82
2023/09/23 00:11:08;;;;;;;0.10;0.10;;;12.30;1.00;;;;;;4961300;28;20049;-81
2023/09/23 00:13:35;;;;;;;0.10;0.10;;;12.30;1.00;;;;;;4971860;28;20031;-81
2023/09/23 00:16:07;;;;;;;0.10;0.10;;;12.30;1.00;;;;;;4968057;28;20039;-83
2023/09/23 00:18:34;;;;;;;0.10;0.10;;;12.20;1.00;;;;;;4960473;28;20042;-84
2023/09/23 00:21:02;;;;;;;0.22;0.20;;;12.20;1.00;;;;;;4969404;28;20038;-83
2023/09/23 00:23:28;;;;;;;0.05;0.05;;;12.20;99.90;;;;;;4971500;28;20058;-83
2023/09/23 00:25:54;;;;;;;0.10;0.10;;;12.20;99.90;;;;;;4974336;28;20038;-84
2023/09/23 00:28:25;;;;;;;0.22;0.20;;;12.20;99.90;;;;;;4971319;28;20038;-82
2023/09/23 00:30:53;;;;;;;0.05;0.05;;;12.20;99.90;;;;;;4975265;28;20050;-82
2023/09/23 00:33:19;;;;;;;0.45;0.45;;;12.20;99.90;;;;;;4964937;28;20051;-83
2023/09/23 00:35:47;;;;;;;0.17;0.17;;;12.20;99.90;;;;;;4955483;28;20440;-83
2023/09/23 00:38:13;;;;;;;0.10;0.10;;;12.10;99.90;;;;;;4968760;28;20053;-83
2023/09/23 00:40:41;;;;;;;0.20;0.20;;;12.20;99.90;;;;;;4963172;28;20035;-83
2023/09/23 00:43:11;;;;;;;3.65;0.88;;;12.20;99.90;;;;;;4971471;28;20039;-81
2023/09/23 00:45:47;;;;;;;0.00;0.00;;;12.10;99.90;;;;;;4978482;28;20037;-81
2023/09/23 00:48:18;;;;;;;0.20;0.20;;;12.20;99.90;;;;;;4940277;28;20035;-81
2023/09/23 00:50:46;;;;;;;0.10;0.10;;;12.10;99.90;;;;;;4970663;28;20035;-83
2023/09/23 00:53:13;;;;;;;0.10;0.10;;;12.10;1.00;;;;;;4979479;28;20432;-81
2023/09/23 00:55:42;;;;;;;0.10;0.10;;;12.00;99.90;;;;;;4961067;28;20047;-81
2023/09/23 00:58:15;;;;;;;0.10;0.10;;;11.90;1.00;;;;;;4964036;28;20035;-80
2023/09/23 01:00:44;;;;;;;0.10;0.10;;;11.90;1.00;;;;;;4973381;28;20042;-81
2023/09/23 01:03:11;;;;;;;0.10;0.10;;;11.80;1.00;;;;;;4966630;28;20038;-81
2023/09/23 01:05:39;;;;;;;0.10;0.10;;;11.70;1.00;;;;;;4978427;28;20050;-81
2023/09/23 01:08:07;;;;;;;0.30;0.30;;;11.70;1.00;;;;;;4976522;28;20065;-81
2023/09/23 01:10:33;;;;;;;0.38;0.32;;;11.70;1.00;;;;;;4961972;28;20034;-82
2023/09/23 01:13:00;;;;;;;0.10;0.10;;;11.70;1.00;;;;;;4974453;28;20045;-82
2023/09/23 01:15:28;;;;;;;0.45;0.45;;;11.70;1.00;;;;;;4970692;28;20131;-81
2023/09/23 01:17:54;;;;;;;0.30;0.30;;;11.70;1.00;;;;;;4975306;28;20031;-82
2023/09/23 01:20:21;;;;;;;0.10;0.10;;;11.60;1.00;;;;;;4974239;28;20038;-81
2023/09/23 01:22:47;;;;;;;0.10;0.10;;;11.50;1.00;;;;;;4953180;28;20043;-81
2023/09/23 01:25:19;;;;;;;0.70;0.35;;;11.50;1.00;;;;;;4965233;28;20050;-81
2023/09/23 01:27:46;;;;;;;0.32;0.32;;;11.40;1.00;;;;;;4960658;28;20060;-81
2023/09/23 01:30:12;;;;;;;0.28;0.28;;;11.30;1.00;;;;;;4979063;28;20042;-81
2023/09/23 01:32:46;;;;;;;0.20;0.20;;;11.10;1.00;;;;;;4958281;28;20452;-81
2023/09/23 01:35:14;;;;;;;0.10;0.10;;;11.10;1.00;;;;;;4977148;28;20045;-81
2023/09/23 01:37:40;;;;;;;0.10;0.10;;;11.00;1.00;;;;;;4976213;28;20111;-81
2023/09/23 01:40:08;;;;;;;0.20;0.20;;;11.10;14.50;;;;;;4954155;28;20149;-81
2023/09/23 01:42:35;;;;;;;0.10;0.10;;;11.10;27.90;;;;;;4972371;28;20082;-82
2023/09/23 01:45:03;;;;;;;0.45;0.45;;;11.10;40.20;;;;;;4975884;28;20457;-82
2023/09/23 01:47:29;;;;;;;0.10;0.10;;;11.00;57.20;;;;;;4970087;28;20050;-82
2023/09/23 01:49:56;;;;;;;0.20;0.20;;;11.00;73.40;;;;;;4978546;28;20039;-82
2023/09/23 01:52:22;;;;;;;0.25;0.25;;;11.00;88.70;;;;;;4979349;28;20030;-81
2023/09/23 01:54:49;;;;;;;0.10;0.10;;;10.90;96.30;;;;;;4976901;28;20038;-81
2023/09/23 01:57:17;;;;;;;0.20;0.20;;;10.90;99.90;;;;;;4975210;28;20035;-81
2023/09/23 01:59:44;;;;;;;0.10;0.10;;;10.90;99.90;;;;;;4971379;28;20368;-81
2023/09/23 02:02:11;;;;;;;0.20;0.20;;;11.00;99.90;;;;;;4959169;28;20066;-81
2023/09/23 02:04:39;;;;;;;0.68;0.20;;;11.00;99.90;;;;;;4970932;28;20035;-81
2023/09/23 02:07:13;;;;;;;0.10;0.10;;;11.00;99.90;;;;;;4964896;28;20460;-81
2023/09/23 02:09:40;;;;;;;0.57;0.35;;;11.00;99.90;;;;;;4968102;28;20051;-81
2023/09/23 02:12:06;;;;;;;0.15;0.15;;;11.00;99.90;;;;;;4984162;28;20030;-81
2023/09/23 02:14:33;;;;;;;0.20;0.20;;;11.00;99.90;;;;;;4957179;28;20119;-82
2023/09/23 02:16:59;;;;;;;0.30;0.30;;;10.90;99.90;;;;;;4960838;28;20055;-82
2023/09/23 02:19:25;;;;;;;0.10;0.10;;;10.90;99.90;;;;;;4958602;28;20468;-82
2023/09/23 02:21:52;;;;;;;0.10;0.10;;;10.90;99.90;;;;;;4954800;28;20043;-82
2023/09/23 02:24:19;;;;;;;0.25;0.22;;;10.90;99.90;;;;;;4972545;28;20047;-82
2023/09/23 02:26:46;;;;;;;0.30;0.25;;;10.90;99.90;;;;;;4976286;28;20034;-81
2023/09/23 02:29:14;;;;;;;0.22;0.22;;;10.90;99.90;;;;;;4950904;28;20035;-82
2023/09/23 02:31:48;;;;;;;0.20;0.20;;;10.90;99.90;;;;;;4976230;28;20035;-82
2023/09/23 02:34:16;;;;;;;0.10;0.10;;;10.80;99.90;;;;;;4981696;28;20058;-82
2023/09/23 02:36:45;;;;;;;0.82;0.80;;;10.90;99.90;;;;;;4957088;28;20061;-82
2023/09/23 02:39:20;;;;;;;0.10;0.10;;;10.80;99.90;;;;;;4954131;28;20066;-81
2023/09/23 02:41:49;;;;;;;0.45;0.30;;;10.80;99.90;;;;;;4949243;28;20047;-81
2023/09/23 02:44:22;;;;;;;0.47;0.47;;;10.70;99.90;;;;;;4965689;28;20050;-81
2023/09/23 02:46:49;;;;;;;0.30;0.30;;;10.60;99.90;;;;;;4954652;28;20043;-82
2023/09/23 02:49:16;;;;;;;0.10;0.10;;;10.60;99.90;;;;;;4953604;28;20040;-81
2023/09/23 02:51:44;;;;;;;0.22;0.22;;;10.60;99.90;;;;;;4955891;28;20054;-82
2023/09/23 02:54:13;;;;;;;0.20;0.20;;;10.60;99.90;;;;;;4960895;28;20042;-81
2023/09/23 02:56:40;;;;;;;0.10;0.10;;;10.50;99.90;;;;;;4954830;28;20058;-82
2023/09/23 02:59:13;;;;;;;2.17;0.88;;;10.50;99.90;;;;;;4952816;28;20039;-81
2023/09/23 03:01:45;;;;;;;0.10;0.10;;;10.40;99.90;;;;;;4981119;28;20079;-81
2023/09/23 03:04:19;;;;;;;0.10;0.10;;;10.40;99.90;;;;;;4958008;28;20042;-81
2023/09/23 03:06:53;;;;;;;0.10;0.10;;;10.30;99.90;;;;;;4947610;28;20054;-81
2023/09/23 03:09:22;;;;;;;0.10;0.10;;;10.30;99.90;;;;;;4971186;28;20038;-81
2023/09/23 03:11:57;;;;;;;0.10;0.10;;;10.20;99.90;;;;;;4956587;28;20503;-81
2023/09/23 03:14:30;;;;;;;0.20;0.20;;;10.20;99.90;;;;;;4948164;28;20107;-82
2023/09/23 03:16:57;;;;;;;0.20;0.20;;;10.10;99.90;;;;;;4952952;28;20065;-81
2023/09/23 03:19:27;;;;;;;0.10;0.10;;;10.10;99.90;;;;;;4963034;28;20049;-81
2023/09/23 03:21:57;;;;;;;0.10;0.10;;;10.10;99.90;;;;;;4962952;28;20053;-81
2023/09/23 03:24:25;;;;;;;0.20;0.20;;;10.10;99.90;;;;;;4972688;28;20035;-81
2023/09/23 03:26:53;;;;;;;0.30;0.30;;;10.10;99.90;;;;;;4976244;28;20055;-81
2023/09/23 03:29:20;;;;;;;0.30;0.30;;;10.00;1.00;;;;;;4974194;28;20035;-81
2023/09/23 03:31:47;;;;;;;3.83;0.50;;;10.10;1.00;;;;;;4963341;28;20047;-81
2023/09/23 03:34:14;;;;;;;0.55;0.55;;;10.10;1.00;;;;;;4949250;28;20043;-81
2023/09/23 03:36:41;;;;;;;0.10;0.10;;;10.20;1.00;;;;;;4957423;28;20046;-81
2023/09/23 03:39:09;;;;;;;0.10;0.10;;;10.10;1.00;;;;;;4960316;28;20042;-81
2023/09/23 03:41:37;;;;;;;0.32;0.17;;;10.10;1.00;;;;;;4968286;28;20038;-81
2023/09/23 03:44:07;;;;;;;0.22;0.22;;;10.10;1.00;;;;;;4982628;28;20050;-81
2023/09/23 03:46:34;;;;;;;0.10;0.10;;;10.00;1.00;;;;;;4959549;28;20042;-82
2023/09/23 03:49:00;;;;;;;1.45;0.40;;;10.00;1.00;;;;;;4950693;28;20043;-83
2023/09/23 03:51:27;;;;;;;0.50;0.35;;;10.10;1.00;;;;;;4955123;28;20053;-81
2023/09/23 03:53:53;;;;;;;0.17;0.17;;;10.10;1.00;;;;;;4941371;28;20051;-82
2023/09/23 03:56:24;;;;;;;0.38;0.38;;;10.00;1.00;;;;;;4949265;28;20054;-81
2023/09/23 03:58:52;;;;;;;0.40;0.40;;;10.00;1.00;;;;;;4955006;28;20405;-82
2023/09/23 04:01:19;;;;;;;0.10;0.10;;;10.00;1.00;;;;;;4981054;28;20042;-82
2023/09/23 04:03:46;;;;;;;0.20;0.20;;;10.00;1.00;;;;;;4959320;28;20502;-82
2023/09/23 04:06:12;;;;;;;0.10;0.10;;;10.10;1.00;;;;;;4954911;28;20039;-82
2023/09/23 04:08:38;;;;;;;0.10;0.10;;;10.10;1.00;;;;;;4954836;28;20295;-81
2023/09/23 04:11:08;;;;;;;0.10;0.10;;;10.00;1.00;;;;;;4936132;28;20039;-83
2023/09/23 04:13:34;;;;;;;0.20;0.20;;;9.90;1.00;;;;;;4971597;28;20030;-81
2023/09/23 04:16:01;;;;;;;0.30;0.30;;;9.90;1.00;;;;;;4962237;28;20034;-83
2023/09/23 04:18:27;;;;;;;1.50;0.90;;;9.80;1.00;;;;;;4969430;28;20038;-81
2023/09/23 04:20:54;;;;;;;0.13;0.13;;;9.80;1.00;;;;;;4968049;28;20031;-81
2023/09/23 04:23:20;;;;;;;0.20;0.20;;;9.70;1.00;;;;;;4974168;28;20031;-82
2023/09/23 04:25:50;;;;;;;0.10;0.10;;;9.80;1.00;;;;;;4972780;28;20042;-81
2023/09/23 04:28:17;;;;;;;0.20;0.20;;;9.80;1.00;;;;;;4981103;28;20038;-81
2023/09/23 04:30:43;;;;;;;0.10;0.10;;;9.70;1.00;;;;;;4956997;28;20030;-81
2023/09/23 04:33:12;;;;;;;0.00;0.00;;;9.70;1.00;;;;;;4967889;28;20051;-81
2023/09/23 04:35:38;;;;;;;0.10;0.10;;;9.70;1.00;;;;;;4975646;28;20387;-81
2023/09/23 04:38:05;;;;;;;0.43;0.35;;;9.60;1.00;;;;;;4973074;28;20038;-81
2023/09/23 04:40:31;;;;;;;0.10;0.10;;;9.50;1.00;;;;;;4967277;28;20470;-81
2023/09/23 04:42:57;;;;;;;0.85;0.57;;;9.30;1.00;;;;;;4966880;28;20356;-82
2023/09/23 04:45:24;;;;;;;0.00;0.00;;;9.20;1.00;;;;;;4978980;28;20035;-81
2023/09/23 04:47:50;;;;;;;0.10;0.10;;;9.20;1.00;;;;;;4959328;28;20046;-80
2023/09/23 04:50:17;;;;;;;0.38;0.35;;;9.10;1.00;;;;;;4954276;28;20487;-81
2023/09/23 04:52:46;;;;;;;0.57;0.45;;;9.10;1.00;;;;;;4962922;28;20031;-80
2023/09/23 04:55:12;;;;;;;0.10;0.10;;;9.10;1.00;;;;;;4959906;28;20069;-80
2023/09/23 04:57:38;;;;;;;0.28;0.20;;;9.10;1.00;;;;;;4954635;28;20138;-81
2023/09/23 05:00:08;;;;;;;0.30;0.30;;;9.10;1.00;;;;;;4968431;28;20035;-81
2023/09/23 05:02:36;;;;;;;0.10;0.10;;;9.10;1.00;;;;;;4977684;28;20054;-81
2023/09/23 05:05:03;;;;;;;0.10;0.10;;;9.10;1.00;;;;;;4973605;28;20436;-81
2023/09/23 05:07:30;;;;;;;7.13;0.55;;;9.10;1.00;;;;;;4954689;28;20132;-81
2023/09/23 05:09:56;;;;;;;0.10;0.10;;;9.10;1.00;;;;;;4984539;28;20471;-80
2023/09/23 05:12:24;;;;;;;0.28;0.20;;;9.10;1.00;;;;;;4977961;28;20042;-81
2023/09/23 05:14:50;;;;;;;0.45;0.45;;;9.00;1.00;;;;;;4971585;28;20027;-81
2023/09/23 05:17:16;;;;;;;0.55;0.47;;;8.90;1.00;;;;;;4975782;28;20460;-81
2023/09/23 05:19:46;;;;;;;0.10;0.10;;;8.90;1.00;;;;;;4973132;28;20035;-81
2023/09/23 05:22:12;;;;;;;0.10;0.10;;;8.90;7.40;;;;;;4969760;28;20150;-80
2023/09/23 05:24:45;;;;;;;0.10;0.10;;;9.00;39.80;;;;;;4964218;28;20043;-81
2023/09/23 05:27:11;;;;;;;0.10;0.10;;;9.10;80.40;;;;;;4977505;28;20383;-82
2023/09/23 05:29:37;;;;;;;0.35;0.35;;;9.20;90.30;;;;;;4959344;28;20035;-82
2023/09/23 05:32:04;;;;;;;0.10;0.10;;;9.20;83.10;;;;;;4955006;28;20062;-81
2023/09/23 05:34:30;;;;;;;0.17;0.10;;;9.30;81.90;;;;;;4960610;28;20053;-82
2023/09/23 05:36:56;;;;;;;0.20;0.20;;;9.30;76.20;;;;;;4978289;28;20031;-81
2023/09/23 05:39:23;;;;;;;0.60;0.47;;;9.30;64.20;;;;;;4968329;28;20035;-82
2023/09/23 05:41:51;;;;;;;0.95;0.65;;;9.40;50.90;;;;;;4968683;28;20360;-81
2023/09/23 05:44:18;;;;;;;0.10;0.10;;;9.40;39.80;;;;;;4972638;28;20046;-80
2023/09/23 05:46:45;;;;;;;0.35;0.35;;;9.40;26.80;;;;;;4947914;28;20074;-80
2023/09/23 05:49:12;;;;;;;0.17;0.17;;;9.50;17.60;;;;;;4971346;28;20031;-79
2023/09/23 05:51:38;;;;;;;0.55;0.55;;;9.50;9.10;;;;;;4979487;28;20380;-82
2023/09/23 05:54:05;;;;;;;0.88;0.85;;;9.60;3.80;;;;;;4971866;28;20042;-82
2023/09/23 05:56:31;;;;;;;0.10;0.10;;;9.60;1.00;;;;;;4959675;28;20038;-82
2023/09/23 05:58:57;;;;;;;0.20;0.20;;;9.70;1.00;;;;;;4963390;28;20053;-82
2023/09/23 06:01:23;;;;;;;0.55;0.40;;;9.70;1.00;;;;;;4973127;28;20035;-83
2023/09/23 06:03:50;;;;;;;0.35;0.35;;;9.80;1.00;;;;;;4964637;28;20047;-81
2023/09/23 06:06:16;;;;;;;0.15;0.15;;;9.90;1.00;;;;;;4943008;28;20039;-81
2023/09/23 06:08:42;;;;;;;0.10;0.10;;;10.00;1.00;;;;;;4950097;28;20347;-83
2023/09/23 06:11:11;;;;;;;0.15;0.15;;;10.10;1.00;;;;;;4957379;28;20046;-82
2023/09/23 06:13:37;;;;;;;0.40;0.40;;;10.10;1.00;;;;;;4970939;28;20407;-82
2023/09/23 06:16:07;;;;;;;0.10;0.10;;;10.20;1.00;;;;;;4953119;28;20048;-82
2023/09/23 06:18:33;;;;;;;0.50;0.40;;;10.30;1.00;;;;;;4977019;28;20042;-82
2023/09/23 06:21:01;;;;;;;0.10;0.10;;;10.30;1.00;;;;;;4971338;28;20044;-82
2023/09/23 06:23:28;;;;;;;0.30;0.30;;;10.40;1.00;;;;;;4946314;28;20043;-82
2023/09/23 06:25:55;;;;;;;0.10;0.10;;;10.50;99.90;;;;;;4949745;28;20034;-82
2023/09/23 06:28:23;;;;;;;0.17;0.17;;;10.60;99.90;;;;;;4972737;28;20038;-82
2023/09/23 06:30:49;;;;;;;1.05;0.95;;;10.60;99.90;;;;;;4946734;28;20058;-82
2023/09/23 06:33:16;;;;;;;0.75;0.57;;;10.60;99.90;;;;;;4963610;28;20062;-82
2023/09/23 06:35:42;;;;;;;0.20;0.20;;;10.60;99.90;;;;;;4977825;28;20061;-82
2023/09/23 06:38:09;;;;;;;0.68;0.57;;;10.60;99.90;;;;;;4957742;28;20096;-81
2023/09/23 06:40:35;;;;;;;0.10;0.10;;;10.70;99.90;;;;;;4952192;28;20062;-81
2023/09/23 06:43:01;;;;;;;1.38;1.15;;;10.70;99.90;;;;;;4955160;28;20061;-83
2023/09/23 06:45:28;;;;;;;0.20;0.20;;;10.90;99.90;;;;;;4973722;28;20043;-82
2023/09/23 06:47:54;;;;;;;1.08;0.63;;;10.90;99.90;;;;;;4958889;28;20057;-82
2023/09/23 06:50:20;;;;;;;0.57;0.45;;;11.00;99.90;;;;;;4960063;28;20039;-81
2023/09/23 06:52:49;;;;;;;0.50;0.50;;;11.10;99.90;;;;;;4971025;28;20038;-82
2023/09/23 06:55:16;;;;;;;0.10;0.10;;;11.20;99.90;;;;;;4976347;28;20022;-82
2023/09/23 06:57:43;;;;;;;0.45;0.43;;;11.30;99.90;;;;;;4973096;28;20042;-82
2023/09/23 07:00:09;;;;;;;2.17;0.82;;;11.40;99.90;;;;;;4956422;28;20047;-82
2023/09/23 07:02:35;;;;;;;0.20;0.20;;;11.50;99.90;;;;;;4980702;28;20038;-82
2023/09/23 07:05:02;;;;;;;0.10;0.10;;;11.70;99.90;;;;;;4937027;28;20051;-83
2023/09/23 07:07:28;;;;;;;0.40;0.40;;;11.90;92.50;;;;;;4969967;28;20058;-81
2023/09/23 07:09:54;;;;;;;0.15;0.15;;;12.00;47.60;;;;;;4956447;28;20478;-82
2023/09/23 07:12:20;;;;;;;0.15;0.13;;;12.10;15.80;;;;;;4966911;28;20030;-83
2023/09/23 07:14:47;;;;;;;0.10;0.10;;;12.20;1.00;;;;;;4964616;28;20057;-83
2023/09/23 07:17:13;;;;;;;0.22;0.22;;;12.40;1.00;;;;;;4958884;28;20042;-82
2023/09/23 07:19:39;;;;;;;0.13;0.13;;;12.50;1.00;;;;;;4973303;28;20053;-84
2023/09/23 07:22:05;;;;;;;0.10;0.10;;;12.70;1.00;;;;;;4965055;28;20047;-82
2023/09/23 07:24:35;;;;;;;1.27;0.20;;;12.80;1.00;;;;;;4960147;28;20387;-83
2023/09/23 07:27:01;;;;;;;0.10;0.10;;;12.80;99.90;;;;;;4992532;28;20034;-82
2023/09/23 07:29:27;;;;;;;0.47;0.43;;;12.80;99.90;;;;;;4960529;28;20452;-83
2023/09/23 07:31:53;;;;;;;0.30;0.20;;;12.70;99.90;;;;;;4952299;28;20035;-84
2023/09/23 07:34:19;;;;;;;0.10;0.10;;;12.70;1.00;;;;;;4966263;28;20066;-83
2023/09/23 07:36:46;;;;;;;4.38;0.20;;;12.80;99.90;;;;;;4972480;28;20035;-83
2023/09/23 07:39:12;;;;;;;0.20;0.20;;;12.90;99.90;;;;;;4951161;28;20066;-83
2023/09/23 07:41:39;;;;;;;0.20;0.20;;;13.00;99.90;;;;;;4975957;28;20034;-84
2023/09/23 07:44:05;;;;;;;0.30;0.30;;;13.20;99.90;;;;;;4979551;28;20356;-84
2023/09/23 07:46:32;;;;;;;0.30;0.30;;;13.40;99.90;;;;;;4962041;28;20053;-84
2023/09/23 07:48:58;;;;;;;0.40;0.40;;;13.50;99.90;;;;;;4970307;28;20061;-84
2023/09/23 07:51:24;;;;;;;0.10;0.10;;;13.50;99.90;;;;;;4968103;28;20042;-84
2023/09/23 07:53:54;;;;;;;0.35;0.35;;;13.90;99.90;;;;;;4978504;28;20157;-84
2023/09/23 07:56:20;;;;;;;2.85;0.63;;;14.00;99.90;;;;;;4967313;28;20042;-84
2023/09/23 07:58:46;;;;;;;0.00;0.00;;;14.20;99.90;;;;;;4965336;28;20030;-84
2023/09/23 08:01:12;;;;;;;0.10;0.10;;;14.20;93.70;;;;;;4960792;28;20360;-83
2023/09/23 08:03:38;;;;;;;0.10;0.10;;;14.40;99.90;;;;;;4975507;28;20043;-83
2023/09/23 08:06:04;;;;;;;0.10;0.10;;;14.70;97.90;;;;;;4959420;28;20082;-83
2023/09/23 08:08:31;;;;;;;0.00;0.00;;;14.60;49.50;;;;;;4959557;28;20121;-85
2023/09/23 08:10:57;;;;;;;0.28;0.20;;;14.70;38.90;;;;;;4977785;28;20046;-80
2023/09/23 08:13:25;;;;;;;0.10;0.10;;;15.10;9.50;;;;;;4961975;28;20057;-84
2023/09/23 08:15:59;;;;;;;0.22;0.22;;;15.20;1.00;;;;;;4939751;28;20396;-84
2023/09/23 08:18:26;;;;;;;0.10;0.10;;;15.20;1.00;;;;;;4976912;28;20047;-84
2023/09/23 08:20:56;;;;;;;0.45;0.22;;;15.20;1.00;;;;;;4975924;28;20035;-84
2023/09/23 08:23:23;;;;;;;0.00;0.00;;;15.20;1.00;;;;;;4962080;28;20043;-84
2023/09/23 08:25:49;;;;;;;0.00;0.00;;;15.40;1.00;;;;;;4982079;28;20035;-84
2023/09/23 08:28:15;;;;;;;0.10;0.10;;;15.90;1.00;;;;;;4980491;28;20034;-84
2023/09/23 08:30:44;;;;;;;0.10;0.10;;;16.20;1.00;;;;;;4957375;28;20043;-85
2023/09/23 08:33:12;;;;;;;0.10;0.10;;;16.30;1.00;;;;;;4970657;28;20047;-85
2023/09/23 08:35:42;;;;;;;0.40;0.40;;;16.40;1.00;;;;;;4960900;28;20039;-85
2023/09/23 08:38:09;;;;;;;0.10;0.10;;;16.40;1.00;;;;;;4956229;28;20149;-85
2023/09/23 08:40:36;;;;;;;0.43;0.43;;;16.40;1.00;;;;;;4968553;28;20034;-85
2023/09/23 08:43:04;;;;;;;0.00;0.00;;;16.20;1.00;;;;;;4973768;28;20038;-85
2023/09/23 08:45:31;;;;;;;1.45;0.68;;;16.10;1.00;;;;;;4985081;28;20410;-85
2023/09/23 08:47:58;;;;;;;0.00;0.00;;;16.10;1.00;;;;;;4977723;28;20043;-87
2023/09/23 08:50:25;;;;;;;0.08;0.08;;;16.30;1.00;;;;;;4970980;28;20055;-83
2023/09/23 08:52:52;;;;;;;0.10;0.10;;;16.80;1.00;;;;;;4967000;28;20046;-87
2023/09/23 08:55:19;;;;;;;1.20;0.90;;;16.70;99.90;;;;;;4977735;28;20031;-85
2023/09/23 08:57:45;;;;;;;0.73;0.55;;;16.60;99.90;;;;;;4959781;28;20042;-84
2023/09/23 09:00:13;;;;;;;0.10;0.10;;;16.60;99.90;;;;;;4977242;28;20050;-84
2023/09/23 09:02:39;;;;;;;0.03;0.03;;;16.20;99.90;;;;;;4973615;28;20098;-85
2023/09/23 09:05:05;;;;;;;0.20;0.20;;;16.20;99.90;;;;;;4978952;28;20034;-84
2023/09/23 09:07:34;;;;;;;0.55;0.35;;;16.20;99.90;;;;;;4962219;28;20042;-83
2023/09/23 09:10:00;;;;;;;0.00;0.00;;;16.70;99.90;;;;;;4957417;28;20045;-86
2023/09/23 09:12:26;;;;;;;3.72;1.00;;;16.80;99.90;;;;;;4974457;28;20046;-83
2023/09/23 09:14:53;;;;;;;0.13;0.13;;;16.60;99.90;;;;;;4961032;28;20046;-84
2023/09/23 09:17:19;;;;;;;0.22;0.22;;;17.10;99.90;;;;;;4959923;28;20035;-83
2023/09/23 09:19:45;;;;;;;0.20;0.10;;;17.50;99.90;;;;;;4968395;28;20115;-86
2023/09/23 09:22:13;;;;;;;0.90;0.52;;;17.50;99.90;;;;;;4970821;28;20046;-83
2023/09/23 09:24:40;;;;;;;0.20;0.20;;;17.90;99.90;;;;;;4973045;28;20026;-83
2023/09/23 09:27:14;;;;;;;0.10;0.10;;;18.10;99.90;;;;;;4958081;28;20079;-86
2023/09/23 09:29:41;;;;;;;0.10;0.10;;;18.40;99.90;;;;;;4971903;28;21086;-84
2023/09/23 09:32:11;;;;;;;0.52;0.50;;;18.30;99.90;;;;;;4960054;28;20039;-83
2023/09/23 09:34:47;;;;;;;0.30;0.30;;;18.40;99.90;;;;;;4962209;28;20053;-84
2023/09/23 09:37:14;;;;;;;0.10;0.10;;;18.50;99.90;;;;;;4977619;28;20041;-84
2023/09/23 09:39:51;;;;;;;0.13;0.13;;;18.90;99.90;;;;;;4975311;28;20148;-85
2023/09/23 09:42:24;;;;;;;0.22;0.22;;;19.10;99.90;;;;;;4970334;28;20049;-84
2023/09/23 09:44:54;;;;;;;0.10;0.10;;;19.10;99.90;;;;;;4978489;28;20038;-85
2023/09/23 09:47:22;;;;;;;0.10;0.10;;;18.90;99.90;;;;;;4970070;28;20037;-83
2023/09/23 09:49:54;;;;;;;0.22;0.22;;;18.80;99.90;;;;;;4977044;28;20444;-84
2023/09/23 09:52:25;;;;;;;0.30;0.30;;;18.30;99.90;;;;;;4981968;28;20065;-81
2023/09/23 09:54:58;;;;;;;0.20;0.20;;;18.50;99.90;;;;;;4964790;28;20195;-82
2023/09/23 09:57:28;;;;;;;0.10;0.10;;;18.70;99.90;;;;;;4956288;28;20098;-83
2023/09/23 10:00:08;;;;;;;;;;;18.60;99.90;;;;;;4976092;28;20057;-83
2023/09/23 10:02:38;;;;;;;0.10;0.10;;;18.20;99.90;;;;;;4984219;28;20274;-83
2023/09/23 10:05:06;;;;;;;0.10;0.10;;;17.90;99.90;;;;;;4961199;28;20050;-84
2023/09/23 10:07:54;;;;;;;0.10;0.10;;;18.20;99.90;;;;;;4960254;28;20038;-83
2023/09/23 10:10:34;;;;;;;0.10;0.10;;;18.60;99.90;;;;;;4975396;28;20042;-83
2023/09/23 10:13:18;;;;;;;2.38;0.43;;;18.20;99.90;;;;;;4980093;28;20030;-83
2023/09/23 10:15:45;;;;;;;0.50;0.50;;;18.00;99.90;;;;;;4972594;28;20475;-82
2023/09/23 10:18:18;;;;;;;0.10;0.10;;;17.90;99.90;;;;;;4981680;28;20105;-84
2023/09/23 10:20:50;;;;;;;0.22;0.22;;;17.90;99.90;;;;;;4961085;28;20050;-83
2023/09/23 10:23:19;;;;;;;0.10;0.10;;;17.70;99.90;;;;;;4953415;28;20101;-85
2023/09/23 10:25:47;;;;;;;0.15;0.15;;;17.80;99.90;;;;;;4975623;28;20041;-82
2023/09/23 10:28:40;;;;;;;0.20;0.20;;;18.00;99.90;;;;;;4974552;28;20041;-83
2023/09/23 10:31:06;;;;;;;6.10;0.30;;;18.00;99.90;;;;;;4974326;28;20043;-84
2023/09/23 10:33:36;;;;;;;1.92;1.45;;;18.00;99.90;;;;;;4977721;28;20062;-83
2023/09/23 10:36:04;;;;;;;0.95;0.93;;;17.70;99.90;;;;;;4981667;28;20444;-82
2023/09/23 10:38:38;;;;;;;0.08;0.08;;;17.80;99.90;;;;;;4977326;28;20042;-83
2023/09/23 10:41:04;;;;;;;1.85;0.40;;;18.00;99.90;;;;;;4953437;28;20144;-83
2023/09/23 10:43:34;;;;;;;0.45;0.45;;;18.70;99.90;;;;;;4976442;28;20030;-82
2023/09/23 10:46:02;;;;;;;0.10;0.10;;;19.20;99.90;;;;;;4975654;28;20035;-83
2023/09/23 10:48:29;;;;;;;0.10;0.10;;;18.80;99.90;;;;;;4956047;28;20043;-84
2023/09/23 10:50:55;;;;;;;0.30;0.30;;;19.10;91.00;;;;;;4946788;28;20031;-83
2023/09/23 10:53:22;;;;;;;0.17;0.17;;;19.30;96.60;;;;;;4953397;28;20067;-83
2023/09/23 10:55:51;;;;;;;0.10;0.10;;;19.30;89.70;;;;;;4960200;28;20061;-83
2023/09/23 10:58:18;;;;;;;0.10;0.10;;;19.00;65.50;;;;;;4974192;28;20026;-84
2023/09/23 11:00:46;;;;;;;0.20;0.20;;;18.60;72.80;;;;;;4974724;28;20039;-84
2023/09/23 11:03:19;;;;;;;0.10;0.10;;;18.30;81.70;;;;;;4961479;28;20027;-83
2023/09/23 11:05:47;;;;;;;0.10;0.10;;;18.20;97.10;;;;;;4966046;28;20051;-82
2023/09/23 11:08:16;;;;;;;0.20;0.20;;;18.20;85.00;;;;;;4969737;28;20049;-83
2023/09/23 11:10:43;;;;;;;0.00;0.00;;;17.90;98.30;;;;;;4971402;28;20037;-82
2023/09/23 11:13:12;;;;;;;0.52;0.40;;;17.80;94.70;;;;;;4968371;28;20086;-82
2023/09/23 11:15:39;;;;;;;1.33;0.35;;;17.60;92.10;;;;;;4970438;28;20043;-83
2023/09/23 11:18:10;;;;;;;0.47;0.35;;;17.50;98.20;;;;;;4979498;28;20039;-83
2023/09/23 11:20:42;;;;;;;0.00;0.00;;;17.40;95.50;;;;;;4978104;28;20122;-82
2023/09/23 11:23:10;;;;;;;0.00;0.00;;;17.40;99.90;;;;;;4971063;28;20035;-81
2023/09/23 11:25:38;;;;;;;0.00;0.00;;;17.30;99.90;;;;;;4973228;28;20026;-82
2023/09/23 11:28:04;;;;;;;0.10;0.10;;;17.50;99.90;;;;;;4972341;28;20085;-82
2023/09/23 11:30:31;;;;;;;0.10;0.10;;;17.70;99.90;;;;;;4955082;28;20035;-82
2023/09/23 11:32:57;;;;;;;0.00;0.00;;;18.20;93.60;;;;;;4948236;28;20124;-82
2023/09/23 11:35:25;;;;;;;0.10;0.10;;;18.70;46.00;;;;;;4970549;28;20047;-81
2023/09/23 11:37:54;;;;;;;0.10;0.10;;;18.70;49.10;;;;;;4970707;28;20054;-84
2023/09/23 11:40:20;;;;;;;0.20;0.20;;;18.30;41.90;;;;;;4978414;28;20034;-81
2023/09/23 11:42:46;;;;;;;0.10;0.10;;;18.10;44.20;;;;;;4976105;28;20035;-83
2023/09/23 11:45:13;;;;;;;0.30;0.30;;;17.90;28.60;;;;;;4976851;28;20121;-82
2023/09/23 11:47:39;;;;;;;0.10;0.10;;;17.90;45.00;;;;;;4975527;28;20042;-82
2023/09/23 11:50:06;;;;;;;0.25;0.25;;;18.10;32.20;;;;;;4951473;28;20043;-82
2023/09/23 11:52:33;;;;;;;0.10;0.10;;;18.10;22.10;;;;;;4973925;28;20118;-83
2023/09/23 11:54:59;;;;;;;0.10;0.10;;;18.10;24.20;;;;;;4953522;28;20487;-82
2023/09/23 11:57:26;;;;;;;0.10;0.10;;;18.20;47.80;;;;;;4966819;28;20039;-82
2023/09/23 11:59:52;;;;;;;0.28;0.28;;;18.30;32.20;;;;;;4964159;28;20460;-82
2023/09/23 12:02:21;;;;;;;0.13;0.13;;;18.00;23.80;;;;;;4983168;28;20054;-84
2023/09/23 12:04:48;;;;;;;0.10;0.10;;;18.00;29.40;;;;;;4955246;28;20042;-81
2023/09/23 12:07:16;;;;;;;0.17;0.17;;;18.00;22.00;;;;;;4966589;28;20045;-82
2023/09/23 12:09:43;;;;;;;0.10;0.10;;;17.90;20.60;;;;;;4968363;28;20083;-81
2023/09/23 12:12:12;;;;;;;0.10;0.10;;;17.90;43.50;;;;;;4975807;28;20046;-82
2023/09/23 12:14:42;;;;;;;0.10;0.10;;;18.00;36.00;;;;;;4951987;28;20039;-81
2023/09/23 12:17:14;;;;;;;0.25;0.25;;;18.10;38.40;;;;;;4962812;28;20039;-84
2023/09/23 12:19:44;;;;;;;0.10;0.10;;;18.10;40.70;;;;;;4971872;28;20130;-81
2023/09/23 12:22:12;;;;;;;0.13;0.13;;;18.10;53.80;;;;;;4969983;28;20042;-82
2023/09/23 12:24:45;;;;;;;0.30;0.30;;;18.10;35.40;;;;;;4958035;28;20144;-82
2023/09/23 12:27:12;;;;;;;0.03;0.03;;;18.20;25.00;;;;;;4975576;28;20049;-82
2023/09/23 12:29:38;;;;;;;0.10;0.10;;;18.40;25.00;;;;;;4952746;28;20042;-82
2023/09/23 12:32:05;;;;;;;0.10;0.10;;;18.50;15.80;;;;;;4969023;28;20046;-81
2023/09/23 12:34:32;;;;;;;0.10;0.10;;;18.60;16.50;;;;;;4938352;28;20051;-82
2023/09/23 12:36:59;;;;;;;0.10;0.10;;;18.60;7.80;;;;;;4938106;28;20137;-82
2023/09/23 12:39:26;;;;;;;0.20;0.20;;;18.80;10.00;;;;;;4947295;28;20050;-82
2023/09/23 12:41:52;;;;;;;0.10;0.10;;;19.00;5.00;;;;;;4941658;28;20059;-83
2023/09/23 12:44:18;;;;;;;0.10;0.10;;;19.20;1.00;;;;;;4961727;28;20034;-83
2023/09/23 12:46:45;;;;;;;0.10;0.10;;;18.70;1.00;;;;;;4954714;28;20039;-85
2023/09/23 12:49:11;;;;;;;0.10;0.10;;;18.50;1.80;;;;;;4940702;28;20074;-82
2023/09/23 12:51:38;;;;;;;0.10;0.10;;;18.50;19.90;;;;;;4940899;28;20095;-82
2023/09/23 12:54:08;;;;;;;2.92;1.27;;;18.60;22.50;;;;;;4960542;28;20055;-81
2023/09/23 12:56:36;;;;;;;0.10;0.10;;;18.60;20.40;;;;;;4954398;28;20035;-81